Time;durP1;ratioP1;P1;durP2;ratioP2;P2;SDS_P1;SDS_P2;PMS_P1;PMS_P2;Temp;Humidity;BMP_temperature;BMP_pressure;BME280_temperature;BME280_humidity;BME280_pressure;Samples;Min_cycle;Max_cycle;Signal;HPM_P1;HPM_P2
2022/06/05 00:02:24;;;;;;;;;;;;;;;;;;4938594;28;20005;-61
2022/06/05 00:04:54;;;;;;;;;;;;;;;;;;4956425;28;19918;-61
2022/06/05 00:07:20;;;;;;;;;;;;;;;;;;4938109;28;19961;-60
2022/06/05 00:09:48;;;;;;;;;;;;;;;;;;4935270;28;19930;-60
2022/06/05 00:12:28;;;;;;;;;;;;;;;;;;4930287;28;19933;-60
2022/06/05 00:14:53;;;;;;;;;;;;;;;;;;4958258;28;19937;-60
2022/06/05 00:17:19;;;;;;;;;;;;;;;;;;4955690;28;19922;-61
2022/06/05 00:19:45;;;;;;;;;;;;;;;;;;4955602;28;19972;-62
2022/06/05 00:22:10;;;;;;;;;;;;;;;;;;4940444;28;20381;-60
2022/06/05 00:24:35;;;;;;;;;;;;;;;;;;4955372;28;19918;-60
2022/06/05 00:27:01;;;;;;;;;;;;;;;;;;4941555;28;20008;-61
2022/06/05 00:29:28;;;;;;;;;;;;;;;;;;4924859;28;21140;-61
2022/06/05 00:31:57;;;;;;;;;;;;;;;;;;4956456;28;19964;-62
2022/06/05 00:34:24;;;;;;;;;;;;;;;;;;4938659;28;20939;-61
2022/06/05 00:36:50;;;;;;;;;;;;;;;;;;4939307;28;19922;-61
2022/06/05 00:39:38;;;;;;;;;;;;;;;;;;4955511;28;19921;-61
2022/06/05 00:42:06;;;;;;;;;;;;;;;;;;4932683;28;19922;-60
2022/06/05 00:44:31;;;;;;;;;;;;;;;;;;4916027;28;19964;-60
2022/06/05 00:46:59;;;;;;;;;;;;;;;;;;4938592;28;19922;-60
2022/06/05 00:49:24;;;;;;;;;;;;;;;;;;4925088;28;20321;-60
2022/06/05 00:51:49;;;;;;;;;;;;;;;;;;4956312;28;19918;-60
2022/06/05 00:54:15;;;;;;;;;;;;;;;;;;4937749;28;20377;-60
2022/06/05 00:56:45;;;;;;;;;;;;;;;;;;4954279;28;20274;-60
2022/06/05 00:59:13;;;;;;;;;;;;;;;;;;4954872;28;19926;-61
2022/06/05 01:01:38;;;;;;;;;;;;;;;;;;4938760;28;19929;-61
2022/06/05 01:04:04;;;;;;;;;;;;;;;;;;4921176;28;19929;-60
2022/06/05 01:06:32;;;;;;;;;;;;;;;;;;4954920;28;20945;-61
2022/06/05 01:08:57;;;;;;;;;;;;;;;;;;4957005;28;19926;-60
2022/06/05 01:11:23;;;;;;;;;;;;;;;;;;4956181;28;19922;-60
2022/06/05 01:13:49;;;;;;;;;;;;;;;;;;4945658;28;20012;-60
2022/06/05 01:16:14;;;;;;;;;;;;;;;;;;4957417;28;20243;-62
2022/06/05 01:18:41;;;;;;;;;;;;;;;;;;4954278;28;19922;-60
2022/06/05 01:21:10;;;;;;;;;;;;;;;;;;4953404;28;19918;-60
2022/06/05 01:23:35;;;;;;;;;;;;;;;;;;4916761;28;19930;-60
2022/06/05 01:26:01;;;;;;;;;;;;;;;;;;4954100;28;20345;-62
2022/06/05 01:28:27;;;;;;;;;;;;;;;;;;4936917;28;19927;-62
2022/06/05 01:30:53;;;;;;;;;;;;;;;;;;4951971;28;20297;-62
2022/06/05 01:33:21;;;;;;;;;;;;;;;;;;4935861;28;19921;-61
2022/06/05 01:35:46;;;;;;;;;;;;;;;;;;4953854;28;20437;-60
2022/06/05 01:38:12;;;;;;;;;;;;;;;;;;4952193;28;20040;-63
2022/06/05 01:40:37;;;;;;;;;;;;;;;;;;4953387;28;19918;-61
2022/06/05 01:43:03;;;;;;;;;;;;;;;;;;4955383;28;19922;-60
2022/06/05 01:45:28;;;;;;;;;;;;;;;;;;4938146;28;19922;-63
2022/06/05 01:47:53;;;;;;;;;;;;;;;;;;4953944;28;19922;-61
2022/06/05 01:50:19;;;;;;;;;;;;;;;;;;4932085;28;20088;-61
2022/06/05 01:52:46;;;;;;;;;;;;;;;;;;4920829;28;20035;-61
2022/06/05 01:55:12;;;;;;;;;;;;;;;;;;4957042;28;20008;-61
2022/06/05 02:00:54;;;;;;;;;;;;;;;;;;4954534;28;19932;-60
2022/06/05 02:03:24;;;;;;;;;;;;;;;;;;4921440;28;19918;-60
2022/06/05 02:05:52;;;;;;;;;;;;;;;;;;4938182;28;19918;-61
2022/06/05 02:08:20;;;;;;;;;;;;;;;;;;4951956;28;19919;-60
2022/06/05 02:10:45;;;;;;;;;;;;;;;;;;4936207;28;19940;-61
2022/06/05 02:13:13;;;;;;;;;;;;;;;;;;4939582;28;19961;-61
2022/06/05 02:15:39;;;;;;;;;;;;;;;;;;4927325;28;20029;-61
2022/06/05 02:18:12;;;;;;;;;;;;;;;;;;4953371;28;20325;-63
2022/06/05 02:20:37;;;;;;;;;;;;;;;;;;4931476;28;21345;-61
2022/06/05 02:23:02;;;;;;;;;;;;;;;;;;4936473;28;19918;-61
2022/06/05 02:25:28;;;;;;;;;;;;;;;;;;4931390;28;20809;-61
2022/06/05 02:27:53;;;;;;;;;;;;;;;;;;4937163;28;20012;-61
2022/06/05 02:30:19;;;;;;;;;;;;;;;;;;4919517;28;20691;-61
2022/06/05 02:32:44;;;;;;;;;;;;;;;;;;4953910;28;19961;-62
2022/06/05 02:35:09;;;;;;;;;;;;;;;;;;4953710;28;19925;-60
2022/06/05 02:37:37;;;;;;;;;;;;;;;;;;4951291;28;19926;-61
2022/06/05 02:40:03;;;;;;;;;;;;;;;;;;4937382;28;20061;-61
2022/06/05 02:42:28;;;;;;;;;;;;;;;;;;4938966;28;19917;-60
2022/06/05 02:44:56;;;;;;;;;;;;;;;;;;4928729;28;19933;-64
2022/06/05 02:47:24;;;;;;;;;;;;;;;;;;4954035;28;19923;-61
2022/06/05 02:49:50;;;;;;;;;;;;;;;;;;4942414;28;20061;-64
2022/06/05 02:52:15;;;;;;;;;;;;;;;;;;4959081;28;20646;-60
2022/06/05 02:54:41;;;;;;;;;;;;;;;;;;4956080;28;19921;-61
2022/06/05 02:57:08;;;;;;;;;;;;;;;;;;4938762;28;20977;-60
2022/06/05 02:59:38;;;;;;;;;;;;;;;;;;4940976;28;19930;-63
2022/06/05 03:04:48;;;;;;;;;;;;;;;;;;4938337;28;19937;-61
2022/06/05 03:07:13;;;;;;;;;;;;;;;;;;4941040;28;19922;-62
2022/06/05 03:09:41;;;;;;;;;;;;;;;;;;4923152;28;19925;-61
2022/06/05 03:12:07;;;;;;;;;;;;;;;;;;4939950;28;19933;-60
2022/06/05 03:14:32;;;;;;;;;;;;;;;;;;4918172;28;19923;-61
2022/06/05 03:16:58;;;;;;;;;;;;;;;;;;4956219;28;19918;-65
2022/06/05 03:19:27;;;;;;;;;;;;;;;;;;4955275;28;19933;-61
2022/06/05 03:21:52;;;;;;;;;;;;;;;;;;4955102;28;19926;-61
2022/06/05 03:24:18;;;;;;;;;;;;;;;;;;4956346;28;20405;-61
2022/06/05 03:26:48;;;;;;;;;;;;;;;;;;4955267;28;19930;-62
2022/06/05 03:29:16;;;;;;;;;;;;;;;;;;4941120;28;19929;-61
2022/06/05 03:31:42;;;;;;;;;;;;;;;;;;4937811;28;20962;-61
2022/06/05 03:34:08;;;;;;;;;;;;;;;;;;4939669;28;19926;-60
2022/06/05 03:36:33;;;;;;;;;;;;;;;;;;4955486;28;19918;-61
2022/06/05 03:38:58;;;;;;;;;;;;;;;;;;4942851;28;20592;-60
2022/06/05 03:41:29;;;;;;;;;;;;;;;;;;4954558;28;19926;-61
2022/06/05 03:43:54;;;;;;;;;;;;;;;;;;4956884;28;19926;-60
2022/06/05 03:46:20;;;;;;;;;;;;;;;;;;4957574;28;20646;-61
2022/06/05 03:48:48;;;;;;;;;;;;;;;;;;4941988;28;19922;-63
2022/06/05 03:51:16;;;;;;;;;;;;;;;;;;4940857;28;19930;-62
2022/06/05 03:53:43;;;;;;;;;;;;;;;;;;4959336;28;19918;-62
2022/06/05 03:56:11;;;;;;;;;;;;;;;;;;4932074;28;21941;-62
2022/06/05 03:58:42;;;;;;;;;;;;;;;;;;4934918;28;20643;-62
2022/06/05 04:01:07;;;;;;;;;;;;;;;;;;4924093;28;19926;-62
2022/06/05 04:03:32;;;;;;;;;;;;;;;;;;4938684;28;19925;-62
2022/06/05 04:05:57;;;;;;;;;;;;;;;;;;4943263;28;19928;-62
2022/06/05 04:08:23;;;;;;;;;;;;;;;;;;4925623;28;19937;-61
2022/06/05 04:10:48;;;;;;;;;;;;;;;;;;4939226;28;19933;-63
2022/06/05 04:13:16;;;;;;;;;;;;;;;;;;4939700;28;19969;-61
2022/06/05 04:15:44;;;;;;;;;;;;;;;;;;4940787;28;20346;-61
2022/06/05 04:18:09;;;;;;;;;;;;;;;;;;4953223;28;20011;-63
2022/06/05 04:20:35;;;;;;;;;;;;;;;;;;4957813;28;20362;-62
2022/06/05 04:23:08;;;;;;;;;;;;;;;;;;4955469;28;19922;-62
2022/06/05 04:25:33;;;;;;;;;;;;;;;;;;4934933;28;19918;-62
2022/06/05 04:27:59;;;;;;;;;;;;;;;;;;4932854;28;21946;-63
2022/06/05 04:30:28;;;;;;;;;;;;;;;;;;4941139;28;20499;-60
2022/06/05 04:32:54;;;;;;;;;;;;;;;;;;4956659;28;19922;-63
2022/06/05 04:35:24;;;;;;;;;;;;;;;;;;4939780;28;19922;-64
2022/06/05 04:37:52;;;;;;;;;;;;;;;;;;4956331;28;19918;-63
2022/06/05 04:40:17;;;;;;;;;;;;;;;;;;4923207;28;20676;-63
2022/06/05 04:42:43;;;;;;;;;;;;;;;;;;4957060;28;20370;-62
2022/06/05 04:45:08;;;;;;;;;;;;;;;;;;4941166;28;19922;-65
2022/06/05 04:47:33;;;;;;;;;;;;;;;;;;4933070;28;20044;-62
2022/06/05 04:50:01;;;;;;;;;;;;;;;;;;4941798;28;19926;-63
2022/06/05 04:52:27;;;;;;;;;;;;;;;;;;4956614;28;19924;-64
2022/06/05 04:54:55;;;;;;;;;;;;;;;;;;4937908;28;20386;-64
2022/06/05 04:57:23;;;;;;;;;;;;;;;;;;4954962;28;19945;-62
2022/06/05 04:59:49;;;;;;;;;;;;;;;;;;4955988;28;19948;-62
2022/06/05 05:02:16;;;;;;;;;;;;;;;;;;4931785;28;19928;-63
2022/06/05 05:04:41;;;;;;;;;;;;;;;;;;4955394;28;20420;-65
2022/06/05 05:07:09;;;;;;;;;;;;;;;;;;4956905;28;19918;-65
2022/06/05 05:09:34;;;;;;;;;;;;;;;;;;4953068;28;19980;-63
2022/06/05 05:12:00;;;;;;;;;;;;;;;;;;4955367;28;19921;-63
2022/06/05 05:14:25;;;;;;;;;;;;;;;;;;4941138;28;19949;-62
2022/06/05 05:16:51;;;;;;;;;;;;;;;;;;4917085;28;20052;-62
2022/06/05 05:19:17;;;;;;;;;;;;;;;;;;4938532;28;19932;-62
2022/06/05 05:21:44;;;;;;;;;;;;;;;;;;4953094;28;19926;-62
2022/06/05 05:24:10;;;;;;;;;;;;;;;;;;4954262;28;19958;-62
2022/06/05 05:26:36;;;;;;;;;;;;;;;;;;4955408;28;20108;-62
2022/06/05 05:29:03;;;;;;;;;;;;;;;;;;4953329;28;19922;-62
2022/06/05 05:31:28;;;;;;;;;;;;;;;;;;4918080;28;19984;-62
2022/06/05 05:33:56;;;;;;;;;;;;;;;;;;4954350;28;19944;-63
2022/06/05 05:36:22;;;;;;;;;;;;;;;;;;4954525;28;19976;-62
2022/06/05 05:44:18;;;;;;;;;;;;;;;;;;4935484;28;20381;-63
2022/06/05 05:46:46;;;;;;;;;;;;;;;;;;4933491;28;20110;-63
2022/06/05 05:49:14;;;;;;;;;;;;;;;;;;4953768;28;20044;-62
2022/06/05 05:51:39;;;;;;;;;;;;;;;;;;4916962;28;19926;-63
2022/06/05 05:54:07;;;;;;;;;;;;;;;;;;4953078;28;19921;-62
2022/06/05 05:56:32;;;;;;;;;;;;;;;;;;4936431;28;19977;-63
2022/06/05 05:58:57;;;;;;;;;;;;;;;;;;4936750;28;19997;-62
2022/06/05 06:01:25;;;;;;;;;;;;;;;;;;4953710;28;19918;-63
2022/06/05 06:03:50;;;;;;;;;;;;;;;;;;4930161;28;20709;-63
2022/06/05 06:06:15;;;;;;;;;;;;;;;;;;4954503;28;19929;-63
2022/06/05 06:08:40;;;;;;;;;;;;;;;;;;4921800;28;19921;-68
2022/06/05 06:11:06;;;;;;;;;;;;;;;;;;4938747;28;19926;-63
2022/06/05 06:13:31;;;;;;;;;;;;;;;;;;4937473;28;20017;-63
2022/06/05 06:15:56;;;;;;;;;;;;;;;;;;4936408;28;20383;-64
2022/06/05 06:18:26;;;;;;;;;;;;;;;;;;4930814;28;21281;-65
2022/06/05 06:20:54;;;;;;;;;;;;;;;;;;4921818;28;19918;-63
2022/06/05 06:23:22;;;;;;;;;;;;;;;;;;4935268;28;19922;-63
2022/06/05 06:25:50;;;;;;;;;;;;;;;;;;4916613;28;21765;-62
2022/06/05 06:28:16;;;;;;;;;;;;;;;;;;4953268;28;19961;-64
2022/06/05 06:30:41;;;;;;;;;;;;;;;;;;4950154;28;19942;-63
2022/06/05 06:33:07;;;;;;;;;;;;;;;;;;4954328;28;21048;-63
2022/06/05 06:35:32;;;;;;;;;;;;;;;;;;4936818;28;19929;-63
2022/06/05 06:37:57;;;;;;;;;;;;;;;;;;4920009;28;20053;-63
2022/06/05 06:40:22;;;;;;;;;;;;;;;;;;4921005;28;19922;-63
2022/06/05 06:42:48;;;;;;;;;;;;;;;;;;4919846;28;19946;-62
2022/06/05 06:45:13;;;;;;;;;;;;;;;;;;4938611;28;20555;-63
2022/06/05 06:47:41;;;;;;;;;;;;;;;;;;4934818;28;20224;-63
2022/06/05 06:50:06;;;;;;;;;;;;;;;;;;4936849;28;19964;-63
2022/06/05 06:52:33;;;;;;;;;;;;;;;;;;4937256;28;19922;-64
2022/06/05 06:55:04;;;;;;;;;;;;;;;;;;4937707;28;19922;-64
2022/06/05 06:57:31;;;;;;;;;;;;;;;;;;4936516;28;20316;-64
2022/06/05 06:59:57;;;;;;;;;;;;;;;;;;4935973;28;19930;-63
2022/06/05 07:02:24;;;;;;;;;;;;;;;;;;4955293;28;19922;-64
2022/06/05 07:04:50;;;;;;;;;;;;;;;;;;4937537;28;19933;-64
2022/06/05 07:07:15;;;;;;;;;;;;;;;;;;4937543;28;19945;-65
2022/06/05 07:09:46;;;;;;;;;;;;;;;;;;4934558;28;19922;-63
2022/06/05 07:12:11;;;;;;;;;;;;;;;;;;4954117;28;19957;-65
2022/06/05 07:14:36;;;;;;;;;;;;;;;;;;4937175;28;20346;-67
2022/06/05 07:17:02;;;;;;;;;;;;;;;;;;4953807;28;20561;-63
2022/06/05 07:19:29;;;;;;;;;;;;;;;;;;4937901;28;19917;-68
2022/06/05 07:21:55;;;;;;;;;;;;;;;;;;4956310;28;19945;-64
2022/06/05 07:24:22;;;;;;;;;;;;;;;;;;4933920;28;19928;-63
2022/06/05 07:26:50;;;;;;;;;;;;;;;;;;4936772;28;19926;-65
2022/06/05 07:29:16;;;;;;;;;;;;;;;;;;4935039;28;19922;-63
2022/06/05 07:31:41;;;;;;;;;;;;;;;;;;4954315;28;19917;-65
2022/06/05 07:34:09;;;;;;;;;;;;;;;;;;4937277;28;19914;-68
2022/06/05 07:36:36;;;;;;;;;;;;;;;;;;4937712;28;20009;-63
2022/06/05 07:39:04;;;;;;;;;;;;;;;;;;4957464;28;19964;-63
2022/06/05 07:44:46;;;;;;;;;;;;;;;;;;4955741;28;19968;-64
2022/06/05 07:47:12;;;;;;;;;;;;;;;;;;4957643;28;19918;-66
2022/06/05 07:49:42;;;;;;;;;;;;;;;;;;4937780;28;20009;-63
2022/06/05 07:54:56;;;;;;;;;;;;;;;;;;4957330;28;19926;-64
2022/06/05 07:57:21;;;;;;;;;;;;;;;;;;4956184;28;19922;-64
2022/06/05 07:59:46;;;;;;;;;;;;;;;;;;4940345;28;19926;-64
2022/06/05 08:02:12;;;;;;;;;;;;;;;;;;4952502;28;19922;-66
2022/06/05 08:04:38;;;;;;;;;;;;;;;;;;4954485;28;19933;-64
2022/06/05 08:07:06;;;;;;;;;;;;;;;;;;4939380;28;19922;-64
2022/06/05 08:09:32;;;;;;;;;;;;;;;;;;4953460;28;19924;-64
2022/06/05 08:11:57;;;;;;;;;;;;;;;;;;4915800;28;19929;-64
2022/06/05 08:14:23;;;;;;;;;;;;;;;;;;4939724;28;19922;-65
2022/06/05 08:16:48;;;;;;;;;;;;;;;;;;4955498;28;20029;-66
2022/06/05 08:19:14;;;;;;;;;;;;;;;;;;4956565;28;19934;-65
2022/06/05 08:21:40;;;;;;;;;;;;;;;;;;4958584;28;19925;-65
2022/06/05 08:24:05;;;;;;;;;;;;;;;;;;4938498;28;20534;-68
2022/06/05 08:26:30;;;;;;;;;;;;;;;;;;4941153;28;20326;-64
2022/06/05 08:28:56;;;;;;;;;;;;;;;;;;4939299;28;19928;-66
2022/06/05 08:31:24;;;;;;;;;;;;;;;;;;4936187;28;19940;-67
2022/06/05 08:33:50;;;;;;;;;;;;;;;;;;4957230;28;19922;-64
2022/06/05 08:36:17;;;;;;;;;;;;;;;;;;4936915;28;19953;-65
2022/06/05 08:41:27;;;;;;;;;;;;;;;;;;4939214;28;19922;-65
2022/06/05 08:43:52;;;;;;;;;;;;;;;;;;4955585;28;19940;-66
2022/06/05 08:46:20;;;;;;;;;;;;;;;;;;4933853;28;19925;-65
2022/06/05 08:48:47;;;;;;;;;;;;;;;;;;4938287;28;19940;-67
2022/06/05 08:51:15;;;;;;;;;;;;;;;;;;4921441;28;19966;-69
2022/06/05 08:53:40;;;;;;;;;;;;;;;;;;4932954;28;19921;-64
2022/06/05 08:56:08;;;;;;;;;;;;;;;;;;4952886;28;20360;-64
2022/06/05 08:58:33;;;;;;;;;;;;;;;;;;4939997;28;19922;-64
2022/06/05 09:01:00;;;;;;;;;;;;;;;;;;4926935;28;19932;-65
2022/06/05 09:03:25;;;;;;;;;;;;;;;;;;4925529;28;20005;-68
2022/06/05 09:05:54;;;;;;;;;;;;;;;;;;4942428;28;19972;-63
2022/06/05 09:08:22;;;;;;;;;;;;;;;;;;4935226;28;19928;-64
2022/06/05 09:10:50;;;;;;;;;;;;;;;;;;4955750;28;19925;-67
2022/06/05 09:13:15;;;;;;;;;;;;;;;;;;4923074;28;19933;-64
2022/06/05 09:15:43;;;;;;;;;;;;;;;;;;4931879;28;20670;-65
2022/06/05 09:18:11;;;;;;;;;;;;;;;;;;4938651;28;20552;-65
2022/06/05 09:20:40;;;;;;;;;;;;;;;;;;4935988;28;20432;-66
2022/06/05 09:23:05;;;;;;;;;;;;;;;;;;4925519;28;19926;-66
2022/06/05 09:25:30;;;;;;;;;;;;;;;;;;4954308;28;19993;-65
2022/06/05 09:27:56;;;;;;;;;;;;;;;;;;4955785;28;19922;-68
2022/06/05 09:30:21;;;;;;;;;;;;;;;;;;4939191;28;20338;-65
2022/06/05 09:32:46;;;;;;;;;;;;;;;;;;4940163;28;19926;-70
2022/06/05 09:35:12;;;;;;;;;;;;;;;;;;4956104;28;20009;-66
2022/06/05 09:37:39;;;;;;;;;;;;;;;;;;4953512;28;19929;-65
2022/06/05 09:40:08;;;;;;;;;;;;;;;;;;4936509;28;19930;-67
2022/06/05 09:45:50;;;;;;;;;;;;;;;;;;4955614;28;20005;-65
2022/06/05 09:48:16;;;;;;;;;;;;;;;;;;4954913;28;20441;-64
2022/06/05 09:50:41;;;;;;;;;;;;;;;;;;4953913;28;20005;-65
2022/06/05 09:53:06;;;;;;;;;;;;;;;;;;4939085;28;19922;-64
2022/06/05 09:55:32;;;;;;;;;;;;;;;;;;4918044;28;19922;-64
2022/06/05 10:00:42;;;;;;;;;;;;;;;;;;4935417;28;20025;-68
2022/06/05 10:03:07;;;;;;;;;;;;;;;;;;4954267;28;19928;-65
2022/06/05 10:05:33;;;;;;;;;;;;;;;;;;4936302;28;19922;-65
2022/06/05 10:07:58;;;;;;;;;;;;;;;;;;4955148;28;20009;-64
2022/06/05 10:10:26;;;;;;;;;;;;;;;;;;4936070;28;20497;-65
2022/06/05 10:12:51;;;;;;;;;;;;;;;;;;4955050;28;19922;-67
2022/06/05 10:15:16;;;;;;;;;;;;;;;;;;4955951;28;19918;-65
2022/06/05 10:17:41;;;;;;;;;;;;;;;;;;4936239;28;20144;-67
2022/06/05 10:20:07;;;;;;;;;;;;;;;;;;4955611;28;20385;-66
2022/06/05 10:22:32;;;;;;;;;;;;;;;;;;4952874;28;19922;-65
2022/06/05 10:25:06;;;;;;;;;;;;;;;;;;4937808;28;20785;-65
2022/06/05 10:27:31;;;;;;;;;;;;;;;;;;4923073;28;19926;-65
2022/06/05 10:29:59;;;;;;;;;;;;;;;;;;4921810;28;20633;-65
2022/06/05 10:32:24;;;;;;;;;;;;;;;;;;4952887;28;19918;-65
2022/06/05 10:34:49;;;;;;;;;;;;;;;;;;4938833;28;20725;-65
2022/06/05 10:37:15;;;;;;;;;;;;;;;;;;4940151;28;20360;-67
2022/06/05 10:39:43;;;;;;;;;;;;;;;;;;4955460;28;20813;-67
2022/06/05 10:42:08;;;;;;;;;;;;;;;;;;4955226;28;21987;-67
2022/06/05 10:44:33;;;;;;;;;;;;;;;;;;4953956;28;19972;-66
2022/06/05 10:47:03;;;;;;;;;;;;;;;;;;4955272;28;20001;-66
2022/06/05 10:49:31;;;;;;;;;;;;;;;;;;4938003;28;19918;-67
2022/06/05 10:51:57;;;;;;;;;;;;;;;;;;4952929;28;19945;-65
2022/06/05 10:54:22;;;;;;;;;;;;;;;;;;4941528;28;19926;-65
2022/06/05 10:56:50;;;;;;;;;;;;;;;;;;4931149;28;19918;-66
2022/06/05 10:59:16;;;;;;;;;;;;;;;;;;4953614;28;19940;-67
2022/06/05 11:01:41;;;;;;;;;;;;;;;;;;4925497;28;19933;-66
2022/06/05 11:04:11;;;;;;;;;;;;;;;;;;4936037;28;19929;-66
2022/06/05 11:06:37;;;;;;;;;;;;;;;;;;4955782;28;19922;-68
2022/06/05 11:09:04;;;;;;;;;;;;;;;;;;4936530;28;19932;-65
2022/06/05 11:14:19;;;;;;;;;;;;;;;;;;4958165;28;20037;-66
2022/06/05 11:16:45;;;;;;;;;;;;;;;;;;4939752;28;20381;-68
2022/06/05 11:19:10;;;;;;;;;;;;;;;;;;4941185;28;19932;-66
2022/06/05 11:21:36;;;;;;;;;;;;;;;;;;4958840;28;20833;-69
2022/06/05 11:24:01;;;;;;;;;;;;;;;;;;4955450;28;19921;-66
2022/06/05 11:26:27;;;;;;;;;;;;;;;;;;4956610;28;20412;-69
2022/06/05 11:28:52;;;;;;;;;;;;;;;;;;4941621;28;20157;-65
2022/06/05 11:31:22;;;;;;;;;;;;;;;;;;4936942;28;19965;-65
2022/06/05 11:33:48;;;;;;;;;;;;;;;;;;4956559;28;19980;-65
2022/06/05 11:36:16;;;;;;;;;;;;;;;;;;4957496;28;19918;-66
2022/06/05 11:38:44;;;;;;;;;;;;;;;;;;4940113;28;19977;-67
2022/06/05 11:41:09;;;;;;;;;;;;;;;;;;4933682;28;19934;-65
2022/06/05 11:43:37;;;;;;;;;;;;;;;;;;4939850;28;21781;-65
2022/06/05 11:46:05;;;;;;;;;;;;;;;;;;4941761;28;19922;-66
2022/06/05 11:48:33;;;;;;;;;;;;;;;;;;4955851;28;19929;-69
2022/06/05 11:51:03;;;;;;;;;;;;;;;;;;4924548;28;19974;-70
2022/06/05 11:53:28;;;;;;;;;;;;;;;;;;4940200;28;19922;-65
2022/06/05 11:55:54;;;;;;;;;;;;;;;;;;4956351;28;20577;-74
2022/06/05 11:58:19;;;;;;;;;;;;;;;;;;4957800;28;19921;-69
2022/06/05 12:00:45;;;;;;;;;;;;;;;;;;4921424;28;20917;-67
2022/06/05 12:03:10;;;;;;;;;;;;;;;;;;4924879;28;19922;-67
2022/06/05 12:05:38;;;;;;;;;;;;;;;;;;4927782;28;19925;-68
2022/06/05 12:08:03;;;;;;;;;;;;;;;;;;4940302;28;19923;-70
2022/06/05 12:10:28;;;;;;;;;;;;;;;;;;4924584;28;19973;-68
2022/06/05 12:12:56;;;;;;;;;;;;;;;;;;4958441;28;19922;-70
2022/06/05 12:15:23;;;;;;;;;;;;;;;;;;4956494;28;19946;-64
2022/06/05 12:17:48;;;;;;;;;;;;;;;;;;4940683;28;19921;-69
2022/06/05 12:20:13;;;;;;;;;;;;;;;;;;4953299;28;19962;-68
2022/06/05 12:22:39;;;;;;;;;;;;;;;;;;4921842;28;19925;-64
2022/06/05 12:25:04;;;;;;;;;;;;;;;;;;4939426;28;19918;-69
2022/06/05 12:27:29;;;;;;;;;;;;;;;;;;4933094;28;19925;-71
2022/06/05 12:29:55;;;;;;;;;;;;;;;;;;4955589;28;20811;-69
2022/06/05 12:32:22;;;;;;;;;;;;;;;;;;4950639;28;19922;-67
2022/06/05 12:34:50;;;;;;;;;;;;;;;;;;4957689;28;19929;-70
2022/06/05 12:37:16;;;;;;;;;;;;;;;;;;4955545;28;19926;-73
2022/06/05 12:39:41;;;;;;;;;;;;;;;;;;4958783;28;20468;-67
2022/06/05 12:42:09;;;;;;;;;;;;;;;;;;4923596;28;20397;-71
2022/06/05 12:44:35;;;;;;;;;;;;;;;;;;4956113;28;20570;-70
2022/06/05 12:47:03;;;;;;;;;;;;;;;;;;4954457;28;19922;-69
2022/06/05 12:49:29;;;;;;;;;;;;;;;;;;4938776;28;19925;-64
2022/06/05 12:51:54;;;;;;;;;;;;;;;;;;4923781;28;19918;-68
2022/06/05 12:54:22;;;;;;;;;;;;;;;;;;4940163;28;19925;-68
2022/06/05 12:56:50;;;;;;;;;;;;;;;;;;4941339;28;19922;-69
2022/06/05 12:59:17;;;;;;;;;;;;;;;;;;4955278;28;19926;-68
2022/06/05 13:01:42;;;;;;;;;;;;;;;;;;4957985;28;19940;-69
2022/06/05 13:04:08;;;;;;;;;;;;;;;;;;4936841;28;19923;-70
2022/06/05 13:06:33;;;;;;;;;;;;;;;;;;4956526;28;19962;-71
2022/06/05 13:08:59;;;;;;;;;;;;;;;;;;4957088;28;20028;-69
2022/06/05 13:11:24;;;;;;;;;;;;;;;;;;4941579;28;19926;-67
2022/06/05 13:13:49;;;;;;;;;;;;;;;;;;4941301;28;19956;-70
2022/06/05 13:16:16;;;;;;;;;;;;;;;;;;4956725;28;20905;-64
2022/06/05 13:18:42;;;;;;;;;;;;;;;;;;4954822;28;19932;-68
2022/06/05 13:21:07;;;;;;;;;;;;;;;;;;4925908;28;20460;-69
2022/06/05 13:23:33;;;;;;;;;;;;;;;;;;4932531;28;20511;-67
2022/06/05 13:26:01;;;;;;;;;;;;;;;;;;4937117;28;20333;-70
2022/06/05 13:28:26;;;;;;;;;;;;;;;;;;4956655;28;19954;-74
2022/06/05 13:30:52;;;;;;;;;;;;;;;;;;4953727;28;20009;-68
2022/06/05 13:33:17;;;;;;;;;;;;;;;;;;4929108;28;19918;-68
2022/06/05 13:35:42;;;;;;;;;;;;;;;;;;4955866;28;20040;-67
2022/06/05 13:38:10;;;;;;;;;;;;;;;;;;4954979;28;19949;-68
2022/06/05 13:40:37;;;;;;;;;;;;;;;;;;4937255;28;19930;-69
2022/06/05 13:43:02;;;;;;;;;;;;;;;;;;4955891;28;20004;-63
2022/06/05 13:45:31;;;;;;;;;;;;;;;;;;4953598;28;20032;-68
2022/06/05 13:47:58;;;;;;;;;;;;;;;;;;4938398;28;19922;-69
2022/06/05 13:50:24;;;;;;;;;;;;;;;;;;4924054;28;19944;-69
2022/06/05 13:52:52;;;;;;;;;;;;;;;;;;4923774;28;19958;-71
2022/06/05 13:55:19;;;;;;;;;;;;;;;;;;4939801;28;19922;-69
2022/06/05 13:57:44;;;;;;;;;;;;;;;;;;4921469;28;20009;-68
2022/06/05 14:00:12;;;;;;;;;;;;;;;;;;4938518;28;20479;-65
2022/06/05 14:02:42;;;;;;;;;;;;;;;;;;4941185;28;19927;-68
2022/06/05 14:05:08;;;;;;;;;;;;;;;;;;4937395;28;19922;-67
2022/06/05 14:07:36;;;;;;;;;;;;;;;;;;4955560;28;22025;-68
2022/06/05 14:10:04;;;;;;;;;;;;;;;;;;4925838;28;19968;-66
2022/06/05 14:12:30;;;;;;;;;;;;;;;;;;4954718;28;19929;-71
2022/06/05 14:14:56;;;;;;;;;;;;;;;;;;4937352;28;19929;-70
2022/06/05 14:17:21;;;;;;;;;;;;;;;;;;4938470;28;19922;-68
2022/06/05 14:19:46;;;;;;;;;;;;;;;;;;4939299;28;19929;-71
2022/06/05 14:22:14;;;;;;;;;;;;;;;;;;4936942;28;20448;-70
2022/06/05 14:24:39;;;;;;;;;;;;;;;;;;4955582;28;20417;-68
2022/06/05 14:27:07;;;;;;;;;;;;;;;;;;4921077;28;19969;-68
2022/06/05 14:29:35;;;;;;;;;;;;;;;;;;4920081;28;19922;-68
2022/06/05 14:32:03;;;;;;;;;;;;;;;;;;4954546;28;20285;-67
2022/06/05 14:34:29;;;;;;;;;;;;;;;;;;4953183;28;20792;-68
2022/06/05 14:36:54;;;;;;;;;;;;;;;;;;4935945;28;19941;-68
2022/06/05 14:39:20;;;;;;;;;;;;;;;;;;4938160;28;19925;-68
2022/06/05 14:41:46;;;;;;;;;;;;;;;;;;4955165;28;20441;-69
2022/06/05 14:44:16;;;;;;;;;;;;;;;;;;4940122;28;20013;-71
2022/06/05 14:46:44;;;;;;;;;;;;;;;;;;4941187;28;19965;-69
2022/06/05 14:49:09;;;;;;;;;;;;;;;;;;4956642;28;19926;-69
2022/06/05 14:51:38;;;;;;;;;;;;;;;;;;4943725;28;20366;-66
2022/06/05 14:54:03;;;;;;;;;;;;;;;;;;4938701;28;19965;-67
2022/06/05 14:59:13;;;;;;;;;;;;;;;;;;4957585;28;19977;-69
2022/06/05 15:01:38;;;;;;;;;;;;;;;;;;4942651;28;19926;-67
2022/06/05 15:07:23;;;;;;;;;;;;;;;;;;4958277;28;19971;-68
2022/06/05 15:09:48;;;;;;;;;;;;;;;;;;4931872;28;19921;-67
2022/06/05 15:12:17;;;;;;;;;;;;;;;;;;4941657;28;19937;-66
2022/06/05 15:14:44;;;;;;;;;;;;;;;;;;4958743;28;19953;-70
2022/06/05 15:17:17;;;;;;;;;;;;;;;;;;4940721;28;19926;-67
2022/06/05 15:19:42;;;;;;;;;;;;;;;;;;4960301;28;19957;-67
2022/06/05 15:22:07;;;;;;;;;;;;;;;;;;4939922;28;20493;-68
2022/06/05 15:24:32;;;;;;;;;;;;;;;;;;4932035;28;21822;-68
2022/06/05 15:27:00;;;;;;;;;;;;;;;;;;4922406;28;19996;-68
2022/06/05 15:29:26;;;;;;;;;;;;;;;;;;4939928;28;19926;-67
2022/06/05 15:31:53;;;;;;;;;;;;;;;;;;4958364;28;19949;-67
2022/06/05 15:34:21;;;;;;;;;;;;;;;;;;4937762;28;20379;-67
2022/06/05 15:36:51;;;;;;;;;;;;;;;;;;4953154;28;20778;-70
2022/06/05 15:39:16;;;;;;;;;;;;;;;;;;4957713;28;19934;-67
2022/06/05 15:41:42;;;;;;;;;;;;;;;;;;4956069;28;20301;-69
2022/06/05 15:44:09;;;;;;;;;;;;;;;;;;4940977;28;19918;-68
2022/06/05 15:46:34;;;;;;;;;;;;;;;;;;4956080;28;19918;-68
2022/06/05 15:49:02;;;;;;;;;;;;;;;;;;4924475;28;19922;-68
2022/06/05 15:51:28;;;;;;;;;;;;;;;;;;4954791;28;19918;-67
2022/06/05 15:53:55;;;;;;;;;;;;;;;;;;4956953;28;19921;-67
2022/06/05 15:56:20;;;;;;;;;;;;;;;;;;4938376;28;19933;-67
2022/06/05 15:58:48;;;;;;;;;;;;;;;;;;4940710;28;20001;-67
2022/06/05 16:01:13;;;;;;;;;;;;;;;;;;4938941;28;20821;-67
2022/06/05 16:03:39;;;;;;;;;;;;;;;;;;4938635;28;19926;-69
2022/06/05 16:06:04;;;;;;;;;;;;;;;;;;4926616;28;19926;-67
2022/06/05 16:08:30;;;;;;;;;;;;;;;;;;4957246;28;19929;-69
2022/06/05 16:10:55;;;;;;;;;;;;;;;;;;4941564;28;19924;-67
2022/06/05 16:13:23;;;;;;;;;;;;;;;;;;4958274;28;19926;-68
2022/06/05 16:15:51;;;;;;;;;;;;;;;;;;4956334;28;20409;-68
2022/06/05 16:18:16;;;;;;;;;;;;;;;;;;4935128;28;19922;-65
2022/06/05 16:20:42;;;;;;;;;;;;;;;;;;4939715;28;19977;-64
2022/06/05 16:23:07;;;;;;;;;;;;;;;;;;4939866;28;19922;-69
2022/06/05 16:25:35;;;;;;;;;;;;;;;;;;4956653;28;19922;-73
2022/06/05 16:28:00;;;;;;;;;;;;;;;;;;4940438;28;19956;-71
2022/06/05 16:30:26;;;;;;;;;;;;;;;;;;4929733;28;20103;-69
2022/06/05 16:32:51;;;;;;;;;;;;;;;;;;4957319;28;19945;-69
2022/06/05 16:38:01;;;;;;;;;;;;;;;;;;4930980;28;20021;-69
2022/06/05 16:40:26;;;;;;;;;;;;;;;;;;4916089;28;19930;-69
2022/06/05 16:42:52;;;;;;;;;;;;;;;;;;4956263;28;19956;-69
2022/06/05 16:45:17;;;;;;;;;;;;;;;;;;4924313;28;19918;-69
2022/06/05 16:47:45;;;;;;;;;;;;;;;;;;4955443;28;19997;-69
2022/06/05 16:50:11;;;;;;;;;;;;;;;;;;4956325;28;19926;-69
2022/06/05 16:52:42;;;;;;;;;;;;;;;;;;4933424;28;19925;-69
2022/06/05 16:58:24;;;;;;;;;;;;;;;;;;4955471;28;19969;-69
2022/06/05 17:00:49;;;;;;;;;;;;;;;;;;4955963;28;19930;-70
2022/06/05 17:03:15;;;;;;;;;;;;;;;;;;4936922;28;20354;-70
2022/06/05 17:05:40;;;;;;;;;;;;;;;;;;4933519;28;19917;-70
2022/06/05 17:08:08;;;;;;;;;;;;;;;;;;4954570;28;19929;-71
2022/06/05 17:10:41;;;;;;;;;;;;;;;;;;4935771;28;20559;-70
2022/06/05 17:13:09;;;;;;;;;;;;;;;;;;4955471;28;21857;-64
2022/06/05 17:15:34;;;;;;;;;;;;;;;;;;4953272;28;19922;-69
2022/06/05 17:18:01;;;;;;;;;;;;;;;;;;4955994;28;19918;-72
2022/06/05 17:20:27;;;;;;;;;;;;;;;;;;4938487;28;20305;-73
2022/06/05 17:22:52;;;;;;;;;;;;;;;;;;4922603;28;19922;-64